Terminal Aerodrome Forecast
Issued by NWS

Home | Current Version | Previous Version | Text Only | Print | Product List | Glossary Off
Versions: 1 2 3 4 5 6 7 8 9 10 11 12 13 14 15 16 17 18 19 20 21

000
FTUS43 KGRB 220520
TAFATW
TAF
KATW 220520Z 2206/2306 VRB03KT P6SM SCT025 BKN070
     FM221100 08003KT 3SM BR OVC009
     FM221500 05003KT P6SM BKN012
     FM221900 03007KT P6SM SCT025 BKN050
     FM222300 11005KT P6SM BKN050
     FM230300 15005KT P6SM VCSH BKN030=

USA.gov is the U.S. government's official web portal to all federal, state and local government web resources and services.